METAR Data
IDs: Format: Raw Decoded Include TAF

Data at: 2046 UTC 18 Apr 2021

LKCV 182030Z VRB01KT 9999 FEW031 OVC070 07/05 Q1019 NOSIG RMK BLU BLU